Data for 07/06/2018

Time Sea-Level Adjusted Pressure Absolute Pressure Temperature Relative Humidity Dew Point   
(mb) (inHg) (mb) (inHg) (C) (F) (%) (C) (F)
00:05 1026 30.3 855 25.25 21 69.8 62 13.7 56.6
00:10 1026 30.3 855 25.25 21 69.7 62 13.5 56.2
00:15 1026 30.3 855 25.25 20.9 69.7 62 13.4 56.2
00:20 1025 30.27 855 25.25 20.8 69.4 63 13.5 56.3
00:25 1026 30.3 855 25.25 20.7 69.3 62 13.4 56.1
00:30 1026 30.3 855 25.25 20.6 69.2 62 13.3 56
00:35 1026 30.3 855 25.25 20.6 69.1 63 13.3 56
00:40 1026 30.3 855 25.25 20.5 68.9 62 13.1 55.5
00:45 1026 30.3 855 25.25 20.4 68.6 62 13 55.4
00:50 1026 30.3 855 25.25 20.4 68.8 62 12.9 55.3
00:55 1026 30.3 855 25.25 20.6 69.1 61 12.9 55.2
01:00 1026 30.3 855 25.25 20.4 68.7 62 13 55.4
01:05 1026 30.3 855 25.25 20.2 68.3 62 12.9 55.1
01:10 1026 30.3 855 25.25 20.2 68.3 62 12.8 55.1
01:15 1026 30.3 855 25.25 20.1 68.1 62 12.8 55
01:20 1026 30.3 855 25.25 19.8 67.6 63 12.7 54.9
01:25 1026 30.3 855 25.25 19.7 67.5 63 12.7 54.8
01:30 1026 30.3 855 25.25 19.6 67.3 64 12.6 54.7
01:35 1026 30.3 855 25.25 19.6 67.3 63 12.4 54.3
01:40 1026 30.3 855 25.25 19.7 67.5 62 12.4 54.4
01:45 1026 30.3 855 25.25 19.8 67.6 62 12.3 54.1
01:50 1026 30.3 855 25.25 19.8 67.7 61 12.2 54
01:55 1026 30.3 855 25.25 19.9 67.9 60 12.2 53.9
02:00 1026 30.3 855 25.25 20.1 68.1 60 12.3 54.1
02:05 1026 30.3 855 25.25 20.1 68.3 59 12 53.6
02:10 1026 30.3 855 25.25 20.2 68.3 59 12 53.5
02:15 1026 30.3 855 25.25 20.3 68.6 56 11.5 52.6
02:20 1026 30.3 855 25.25 20.6 69 55 11.4 52.5
02:25 1026 30.3 855 25.25 20.5 69 54 11 51.8
02:30 1026 30.3 855 25.25 20.7 69.2 54 11.2 52.2
02:35 1026 30.3 855 25.25 20.6 69.1 53 10.9 51.7
02:40 1025 30.27 855 25.25 20.6 69 53 10.8 51.5
02:45 1025 30.27 855 25.25 20.6 69.2 53 10.7 51.3
02:50 1025 30.27 855 25.25 20.7 69.2 53 10.8 51.4
02:55 1025 30.27 855 25.25 20.4 68.7 54 10.9 51.7
03:00 1025 30.27 855 25.25 20.2 68.4 54 10.7 51.3
03:05 1025 30.27 855 25.25 20.1 68.2 56 11.1 51.9
03:10 1025 30.27 855 25.25 20 68 54 10.6 51
03:15 1025 30.27 855 25.25 20 68 53 10.3 50.6
03:20 1025 30.27 855 25.25 20.2 68.3 51 9.9 49.8
03:25 1025 30.27 855 25.25 20.3 68.6 51 9.9 49.7
03:30 1025 30.27 855 25.25 20.3 68.6 50 9.7 49.5
03:35 1025 30.27 855 25.25 20.4 68.7 49 9.5 49
03:40 1025 30.27 855 25.25 20.5 68.9 49 9.4 49
03:45 1025 30.27 855 25.25 20.6 69 47 9.1 48.4
03:50 1025 30.27 855 25.25 20.5 69 47 9.1 48.4
03:55 1025 30.27 855 25.25 20.4 68.8 48 9.1 48.4
04:00 1025 30.27 855 25.25 20.2 68.3 48 9 48.1
04:05 1025 30.27 855 25.25 20 67.9 49 9.1 48.4
04:10 1025 30.27 855 25.25 19.7 67.4 50 9.1 48.4
04:15 1025 30.27 855 25.25 19.4 66.9 50 8.8 47.9
04:20 1025 30.27 855 25.25 19.4 66.9 51 9.2 48.5
04:25 1025 30.27 855 25.25 19 66.2 52 9.2 48.5
04:30 1025 30.27 855 25.25 18.8 65.8 54 9.3 48.7
04:35 1025 30.27 855 25.25 18.5 65.3 54 9.1 48.4
04:40 1025 30.27 855 25.25 18.4 65.1 55 9.2 48.5
04:45 1025 30.27 855 25.25 18.4 65.1 55 9.2 48.5
04:50 1025 30.27 855 25.25 18.3 64.9 55 9.2 48.5
04:55 1025 30.27 854 25.22 18.2 64.7 55 9.2 48.5
05:00 1025 30.27 854 25.22 18 64.4 56 9.2 48.6
05:05 1025 30.27 854 25.22 17.9 64.3 55 8.8 47.9
05:10 1025 30.27 854 25.22 18 64.4 55 9 48.1
05:15 1025 30.27 854 25.22 17.9 64.3 54 8.7 47.6
05:20 1025 30.27 854 25.22 18 64.5 54 8.8 47.8
05:25 1025 30.27 855 25.25 18.1 64.5 54 8.6 47.5
05:30 1025 30.27 855 25.25 18.2 64.7 52 8.3 46.9
05:35 1025 30.27 855 25.25 18.2 64.7 53 8.5 47.3
05:40 1025 30.27 855 25.25 18.1 64.5 53 8.4 47.1
05:45 1025 30.27 855 25.25 18 64.5 52 8.1 46.5
05:50 1025 30.27 855 25.25 18.1 64.5 52 8.2 46.7
05:55 1026 30.3 855 25.25 18.1 64.5 51 7.9 46.2
06:00 1025 30.27 855 25.25 18.1 64.6 50 7.8 46
06:05 1025 30.27 855 25.25 18.2 64.8 50 7.6 45.7
06:10 1026 30.3 855 25.25 18.3 65 49 7.4 45.4
06:15 1026 30.3 855 25.25 18.5 65.4 47 7.2 44.9
06:20 1026 30.3 855 25.25 18.7 65.7 47 7.1 44.9
06:25 1026 30.3 855 25.25 18.7 65.7 46 7.1 44.8
06:30 1026 30.3 855 25.25 18.8 65.8 46 7 44.5
06:35 1025 30.27 855 25.25 18.7 65.6 47 7.3 45.1
06:40 1025 30.27 855 25.25 18.4 65.2 48 7.4 45.3
06:45 1025 30.27 855 25.25 18.2 64.7 49 7.5 45.5
06:50 1025 30.27 855 25.25 18.2 64.7 49 7.3 45.1
06:55 1025 30.27 855 25.25 18.4 65.2 47 7 44.6
07:00 1025 30.27 855 25.25 18.8 65.8 45 6.7 44
07:05 1025 30.27 855 25.25 19.1 66.4 44 6.7 44.1
07:10 1025 30.27 855 25.25 19.2 66.6 45 7 44.7
07:15 1025 30.27 855 25.25 19.3 66.8 44 6.9 44.4
07:20 1025 30.27 855 25.25 19.5 67.1 48 8.4 47.1
07:25 1025 30.27 855 25.25 19.6 67.2 47 8.2 46.8
07:30 1026 30.3 855 25.25 19.5 67 45 7.4 45.4
07:35 1026 30.3 855 25.25 19.6 67.3 45 7.5 45.6
07:40 1026 30.3 855 25.25 19.7 67.5 46 8 46.4
07:45 1026 30.3 855 25.25 19.9 67.7 50 9.2 48.6
07:50 1026 30.3 855 25.25 20.3 68.5 46 8.3 46.9
07:55 1026 30.3 855 25.25 20.5 69 44 7.9 46.3
08:00 1026 30.3 855 25.25 20.8 69.4 45 8.6 47.5
08:05 1026 30.3 855 25.25 20.7 69.2 44 8.1 46.6
08:10 1026 30.3 855 25.25 20.8 69.5 44 8.3 46.9
08:15 1026 30.3 855 25.25 21.1 70 43 8.2 46.7
08:20 1026 30.3 855 25.25 21.4 70.5 42 8.1 46.6
08:25 1026 30.3 855 25.25 21.8 71.3 41 8 46.4
08:30 1026 30.3 855 25.25 22.1 71.9 40 8.2 46.8
08:35 1026 30.3 855 25.25 22.3 72.2 40 8.4 47.1
08:40 1026 30.3 855 25.25 22.6 72.7 38 8 46.3
08:45 1026 30.3 855 25.25 22.6 72.6 40 8.6 47.5
08:50 1025 30.27 855 25.25 22.8 73 39 8.4 47.1
08:55 1025 30.27 855 25.25 23.4 74.1 36 7.8 46
09:00 1025 30.27 855 25.25 23.9 74.9 36 8 46.5
09:05 1025 30.27 855 25.25 23.8 74.9 36 8.2 46.8
09:10 1025 30.27 854 25.22 24.1 75.3 35 8 46.4
09:15 1025 30.27 854 25.22 24.3 75.8 36 8.6 47.4
09:20 1025 30.27 854 25.22 24.7 76.5 36 8.9 48
09:25 1025 30.27 854 25.22 25 77.1 36 9.1 48.4
09:30 1025 30.27 854 25.22 25.3 77.5 34 8.4 47.2
09:35 1025 30.27 854 25.22 26 78.7 32 8.3 47
09:40 1025 30.27 854 25.22 26.6 79.9 32 8.9 48
09:45 1025 30.27 854 25.22 26.8 80.3 33 9.3 48.7
09:50 1025 30.27 854 25.22 26.9 80.4 32 9 48.1
09:55 1025 30.27 854 25.22 27.2 80.9 30 8.5 47.4
10:00 1025 30.27 854 25.22 28.2 82.7 28 8.1 46.6
10:05 1025 30.27 854 25.22 28.5 83.3 28 8.5 47.4
10:10 1025 30.27 854 25.22 28.8 83.8 30 9.8 49.7
10:15 1025 30.27 854 25.22 28.9 83.9 32 10.6 51
10:20 1025 30.27 854 25.22 29.5 85 27 9.1 48.4
10:25 1025 30.27 854 25.22 29.8 85.6 25 7.8 46
10:30 1024 30.24 854 25.22 29.2 84.5 28 9.1 48.4
10:35 1025 30.27 854 25.22 29.3 84.7 32 11.1 52
10:40 1025 30.27 854 25.22 29.5 85.1 31 11 51.8
10:45 1024 30.24 854 25.22 28.8 83.9 35 12.1 53.7
10:50 1025 30.27 854 25.22 28.2 82.7 34 11.3 52.3
10:55 1025 30.27 854 25.22 28 82.3 41 13.5 56.4
11:00 1025 30.27 854 25.22 27.5 81.4 40 13 55.4
11:05 1025 30.27 854 25.22 26.8 80.3 43 13.5 56.3
11:10 1025 30.27 854 25.22 26.8 80.3 43 13.6 56.4
11:15 1025 30.27 854 25.22 26.3 79.3 41 12.3 54.1
11:20 1025 30.27 854 25.22 27 80.6 40 12.4 54.3
11:25 1025 30.27 854 25.22 26.7 80.1 41 12.4 54.3
11:30 1025 30.27 854 25.22 26.6 79.9 41 12.6 54.6
11:35 1025 30.27 854 25.22 26.4 79.6 41 12.2 54
11:40 1025 30.27 854 25.22 26.2 79.2 39 11.5 52.7
11:45 1025 30.27 854 25.22 25.9 78.7 41 11.9 53.4
11:50 1025 30.27 854 25.22 26.1 78.9 42 12.3 54.1
11:55 1025 30.27 854 25.22 26.1 79 46 13.8 56.9
12:00 1025 30.27 854 25.22 25.3 77.6 47 13.4 56
12:05 1025 30.27 854 25.22 25.2 77.3 46 13.1 55.6
12:10 1025 30.27 854 25.22 25.3 77.6 40 11 51.8
12:15 1025 30.27 854 25.22 25.4 77.8 42 11.7 53.1
12:20 1024 30.24 854 25.22 25.9 78.6 32 8.3 46.9
12:25 1024 30.24 854 25.22 26.4 79.4 29 7.4 45.3
12:30 1024 30.24 853 25.19 27.2 81 28 7.3 45.2
12:35 1024 30.24 853 25.19 27.9 82.2 26 7.1 44.8
12:40 1024 30.24 853 25.19 28.5 83.2 26 7.4 45.2
12:45 1024 30.24 853 25.19 29.1 84.5 26 7.7 45.9
12:50 1024 30.24 853 25.19 30.1 86.1 25 8.2 46.7
12:55 1024 30.24 853 25.19 30.1 86.2 27 9.3 48.8
13:00 1024 30.24 853 25.19 29.5 85.2 26 8.3 46.9
13:05 1024 30.24 853 25.19 29.5 85 28 9.2 48.6
13:10 1024 30.24 853 25.19 29.6 85.3 28 9.6 49.2
13:15 1024 30.24 853 25.19 30 86 28 9.9 49.9
13:20 1024 30.24 853 25.19 29.4 85 29 9.9 49.8
13:25 1024 30.24 853 25.19 30.4 86.6 23 7.5 45.5
13:30 1024 30.24 853 25.19 30.9 87.5 25 8.9 48
13:35 1023 30.21 853 25.19 31.2 88.2 27 10.3 50.6
13:40 1023 30.21 853 25.19 31.7 89 26 10.3 50.5
13:45 1023 30.21 852 25.16 31.6 88.9 26 10.3 50.6
13:50 1023 30.21 852 25.16 31.3 88.3 28 11.2 52.1
13:55 1023 30.21 852 25.16 31.7 89 28 11.1 52
14:00 1023 30.21 853 25.19 32 89.5 25 10 50
14:05 1023 30.21 853 25.19 32.2 90 23 8.5 47.4
14:10 1023 30.21 852 25.16 32.6 90.7 23 9.1 48.4
14:15 1023 30.21 852 25.16 32.4 90.3 23 9 48.1
14:20 1023 30.21 852 25.16 33.6 92.4 22 9.3 48.8
14:25 1023 30.21 852 25.16 33.7 92.7 21 9.1 48.4
14:30 1023 30.21 852 25.16 33.3 91.9 23 9.7 49.4
14:35 1023 30.21 852 25.16 32.5 90.4 22 8.3 47
14:40 1023 30.21 852 25.16 32.3 90.2 22 8 46.4
14:45 1023 30.21 852 25.16 32.7 90.9 20 7.5 45.5
14:50 1023 30.21 852 25.16 32.8 91 19 6.7 44
14:55 1023 30.21 852 25.16 32.5 90.4 20 7.1 44.7
15:00 1023 30.21 852 25.16 32.1 89.8 19 5.9 42.7
15:05 1023 30.21 852 25.16 31.9 89.4 19 5.9 42.6
15:10 1023 30.21 852 25.16 32.2 89.9 19 6 42.8
15:15 1023 30.21 852 25.16 33.1 91.6 18 6.2 43.2
15:20 1023 30.21 852 25.16 33.1 91.6 19 6.7 44
15:25 1023 30.21 852 25.16 32.1 89.7 20 6.4 43.5
15:30 1023 30.21 852 25.16 32.2 90 20 6.5 43.7
15:35 1023 30.21 852 25.16 32.7 90.9 20 6.9 44.4
15:40 1023 30.21 852 25.16 32.4 90.3 20 7.2 44.9
15:45 1023 30.21 852 25.16 32 89.7 21 7.7 45.9
15:50 1022 30.18 852 25.16 32.5 90.5 20 7.2 44.9
15:55 1022 30.18 852 25.16 33.6 92.4 20 7.8 46
16:00 1022 30.18 852 25.16 33.8 92.8 17 6.2 43.1
16:05 1022 30.18 852 25.16 33.1 91.5 18 5.9 42.6
16:10 1022 30.18 851 25.13 33.1 91.5 21 8 46.4
16:15 1022 30.18 851 25.13 32.2 89.9 22 7.9 46.1
16:20 1022 30.18 851 25.13 32.5 90.5 19 6.6 43.9
16:25 1022 30.18 851 25.13 33.3 91.9 19 6.7 44
16:30 1022 30.18 851 25.13 34.1 93.4 18 6.9 44.4
16:35 1022 30.18 851 25.13 33.5 92.2 19 7.3 45.1
16:40 1022 30.18 851 25.13 33.2 91.8 18 5.8 42.5
16:45 1022 30.18 851 25.13 33.4 92.1 16 4.6 40.3
16:50 1022 30.18 851 25.13 33.1 91.6 17 4.9 40.8
16:55 1022 30.18 851 25.13 32.4 90.3 14 2 35.7
17:00 1022 30.18 851 25.13 31.7 89 13 0.8 33.4
17:05 1022 30.18 851 25.13 31.3 88.3 14 1 33.8
17:10 1022 30.18 851 25.13 31.4 88.6 14 1.5 34.7
17:15 1022 30.18 851 25.13 31.7 89.1 14 1.6 34.8
17:20 1022 30.18 851 25.13 32.6 90.6 14 2 35.6
17:25 1022 30.18 851 25.13 33.1 91.6 14 2.5 36.6
17:30 1022 30.18 851 25.13 33.1 91.5 15 3.7 38.6
17:35 1022 30.18 851 25.13 32.4 90.3 15 2.8 37.1
17:40 1022 30.18 851 25.13 32.2 90 15 2.8 37
17:45 1022 30.18 851 25.13 32.3 90.1 17 4.9 40.8
17:50 1022 30.18 851 25.13 32.2 89.9 17 4.8 40.7
17:55 1022 30.18 851 25.13 31.4 88.5 19 5.4 41.8
18:00 1022 30.18 851 25.13 30.8 87.4 22 6.9 44.4
18:05 1022 30.18 851 25.13 30.4 86.6 19 4.8 40.6
18:10 1022 30.18 851 25.13 30.5 86.8 20 5.1 41.3
18:15 1022 30.18 851 25.13 30.6 87.1 18 4 39.1
18:20 1022 30.18 851 25.13 30.3 86.5 17 3.1 37.6
18:25 1022 30.18 851 25.13 30.1 86.2 18 3.6 38.4
18:30 1022 30.18 851 25.13 30 85.9 19 4 39.2
18:35 1022 30.18 851 25.13 29.7 85.4 22 6.1 42.9
18:40 1022 30.18 851 25.13 29.4 85 20 4.3 39.7
18:45 1022 30.18 851 25.13 29.6 85.2 18 3.2 37.8
18:50 1022 30.18 851 25.13 29.7 85.4 19 3.8 38.9
18:55 1022 30.18 851 25.13 29.8 85.7 19 4.3 39.8
19:00 1022 30.18 851 25.13 30.1 86.1 18 3.1 37.7
19:05 1022 30.18 851 25.13 30.4 86.8 18 3.8 38.8
19:10 1022 30.18 851 25.13 30.6 87 20 5.4 41.7
19:15 1022 30.18 851 25.13 30.6 87.2 23 7.6 45.8
19:20 1022 30.18 851 25.13 30.2 86.4 21 5.7 42.2
19:25 1022 30.18 851 25.13 30 86 25 8.3 46.9
19:30 1021 30.15 851 25.13 30.1 86.2 24 8 46.4
19:35 1021 30.15 851 25.13 30 86 23 6.7 44.1
19:40 1021 30.15 851 25.13 29.8 85.6 18 3.1 37.6
19:45 1021 30.15 851 25.13 29.8 85.6 16 1.7 35
19:50 1021 30.15 851 25.13 29.8 85.7 15 0.6 33.1
19:55 1021 30.15 850 25.1 29.9 85.9 15 0.7 33.2
20:00 1021 30.15 850 25.1 29.9 85.9 15 1.2 34.1
20:05 1021 30.15 850 25.1 29.7 85.5 17 2.7 36.8
20:10 1021 30.15 850 25.1 29.5 85 19 3.4 38.1
20:15 1021 30.15 850 25.1 29.3 84.8 16 1.2 34.2
20:20 1021 30.15 850 25.1 29.3 84.7 17 1.9 35.4
20:25 1021 30.15 850 25.1 29.1 84.5 18 2.4 36.4
20:30 1021 30.15 850 25.1 29 84.3 15 0.6 33
20:35 1021 30.15 850 25.1 29 84.3 15 0.4 32.8
20:40 1021 30.15 850 25.1 28.8 83.8 16 1.2 34.1
20:45 1021 30.15 850 25.1 28.5 83.3 16 0.7 33.2
20:50 1021 30.15 850 25.1 28.5 83.3 16 0.6 33.1
20:55 1021 30.15 851 25.13 28.4 83.1 16 0.2 32.3
21:00 1021 30.15 851 25.13 28.3 82.9 17 1 33.8
21:05 1021 30.15 851 25.13 28.1 82.6 16 -0.2 31.7
21:10 1021 30.15 851 25.13 28.1 82.5 19 2.3 36.2
21:15 1021 30.15 851 25.13 27.7 81.8 19 2.3 36.1
21:20 1021 30.15 851 25.13 27.3 81.1 22 3.7 38.6
21:25 1021 30.15 851 25.13 27 80.7 17 0.5 32.9
21:30 1021 30.15 851 25.13 27.2 81 20 2.5 36.5
21:35 1021 30.15 851 25.13 26.9 80.3 21 3.2 37.8
21:40 1022 30.18 851 25.13 26.7 80 16 -1 30.2
21:45 1022 30.18 851 25.13 26.9 80.4 16 -1 30.2
21:50 1022 30.18 851 25.13 26.8 80.2 15 -1.4 29.4
21:55 1022 30.18 851 25.13 26.7 80 17 -0.4 31.4
22:00 1022 30.18 851 25.13 26.3 79.3 20 1.6 35
22:05 1022 30.18 851 25.13 25.8 78.4 19 0.4 32.8
22:10 1022 30.18 851 25.13 25.4 77.7 24 3.5 38.3
22:15 1022 30.18 851 25.13 24.6 76.3 23 2.5 36.5
22:20 1022 30.18 851 25.13 24.2 75.5 22 1.3 34.4
22:25 1022 30.18 851 25.13 23.9 74.9 24 2.4 36.3
22:30 1022 30.18 851 25.13 23.9 75 22 0.9 33.6
22:35 1022 30.18 851 25.13 23.9 74.9 23 1.9 35.3
22:40 1022 30.18 851 25.13 23.7 74.7 23 1.7 35
22:45 1022 30.18 851 25.13 23.7 74.7 21 0.3 32.6
22:50 1022 30.18 851 25.13 23.5 74.4 26 3.3 38
22:55 1022 30.18 851 25.13 22.9 73.2 29 4 39.1
23:00 1022 30.18 851 25.13 22.5 72.5 28 3.5 38.3
23:05 1022 30.18 851 25.13 22.5 72.4 29 3.8 38.8
23:10 1022 30.18 851 25.13 22.7 72.8 28 3.7 38.7
23:15 1022 30.18 852 25.16 22.7 72.9 28 3.3 37.9
23:20 1022 30.18 851 25.13 22.6 72.6 28 3.3 37.9
23:25 1022 30.18 852 25.16 22.6 72.6 28 3.3 38
23:30 1022 30.18 852 25.16 22.5 72.4 26 2.3 36.1
23:35 1022 30.18 852 25.16 22.4 72.2 26 2 35.6
23:40 1022 30.18 851 25.13 22.1 71.8 28 3.1 37.6
23:45 1022 30.18 851 25.13 21.4 70.6 30 3.5 38.3
23:50 1022 30.18 852 25.16 20.5 68.9 32 3.4 38.1
23:55 1022 30.18 852 25.16 20.4 68.7 31 3 37.5
24:00 1022 30.18 852 25.16 20.6 69.1 32 3.5 38.3